»·PEaware :: N799DS KWJF-KBUR

N799DS :: KWJF-KBUR

FLIGHT INFORMATION

Flight Status: Arrived
Operator: Privately registered:
United States
More flights under this callsign
Pilot: Wolfgang B. (15069)
Aircraft: CESSNA 172 SKYHAWK
(C172)
More flights by this aircraft type
Origin: KWJF Gen Fox
United States
Destination: KBUR Bob Hope-Burbank
United States
More flights between these airports :: More routes between these airports
Route: +PMD PMD240 LYNXX VNY329 VNY
File this flight plan on PilotEdge
Remarks: TEC route EDWN4
Altitude:
(Current/Filed)
8,000ft
Speed:
(Current/Filed)
115kts
Departed: 06-May-17 07:14 AM
Arrived: 06-May-17 08:13 AM
Distance/Time
Traveled:
33nm/0:59
Distance/Time
To Go:
Arrived

Flight Plot

Page will automatically refresh every two minutes.


Map Options




Map Legend


Flown Route
Filed Route
Departure Airport
Arrival Airport
Navaid (VOR, NDB)
Fix

Horizontal Profiles

Position Reports

Time Latitude Longitude Heading Altitude Ground
Speed
06-May-17 06:47 34.739065 -118.217236 253 2343ft 0kts
06-May-17 06:48 34.739065 -118.217236 253 2343ft 0kts
06-May-17 06:49 34.739065 -118.217236 253 2343ft 0kts
06-May-17 06:50 34.739065 -118.217236 253 2343ft 0kts
06-May-17 06:51 34.739065 -118.217236 253 2343ft 0kts
06-May-17 06:52 34.739065 -118.217236 253 2343ft 0kts
06-May-17 06:53 34.739065 -118.217236 253 2343ft 0kts
06-May-17 06:54 34.739065 -118.217236 253 2343ft 0kts
06-May-17 06:55 34.739065 -118.217236 253 2343ft 0kts
06-May-17 06:56 34.739065 -118.217236 253 2343ft 0kts
06-May-17 06:57 34.739065 -118.217236 253 2343ft 0kts
06-May-17 06:58 34.739065 -118.217236 253 2343ft 0kts
06-May-17 06:59 34.739065 -118.217236 253 2343ft 0kts
06-May-17 07:00 34.739065 -118.217236 253 2343ft 0kts
06-May-17 07:01 34.739065 -118.217236 253 2343ft 0kts
06-May-17 07:02 34.739064 -118.217236 253 2343ft 0kts
06-May-17 07:03 34.739065 -118.217236 253 2343ft 0kts
06-May-17 07:04 34.739065 -118.217236 253 2343ft 0kts
06-May-17 07:05 34.739065 -118.217236 253 2343ft 0kts
06-May-17 07:06 34.739065 -118.217236 253 2343ft 0kts
06-May-17 07:07 34.739065 -118.217236 253 2343ft 0kts
06-May-17 07:08 34.739065 -118.217236 253 2343ft 0kts
06-May-17 07:09 34.739061 -118.217249 251 2343ft 1kts
06-May-17 07:10 34.740837 -118.215730 74 2341ft 18kts
06-May-17 07:11 34.742886 -118.208187 68 2336ft 25kts
06-May-17 07:12 34.743051 -118.207589 76 2336ft 5kts
06-May-17 07:13 34.743330 -118.207082 8 2336ft 0kts
06-May-17 07:14 34.743330 -118.207082 8 2336ft 0kts
06-May-17 07:15 34.743864 -118.208061 247 2336ft 6kts
06-May-17 07:16 34.740684 -118.224565 254 2964ft 58kts
06-May-17 07:17 34.729981 -118.214946 129 3716ft 85kts
06-May-17 07:18 34.721958 -118.189211 115 4588ft 82kts
06-May-17 07:19 34.713029 -118.164080 139 5336ft 80kts
06-May-17 07:20 34.699052 -118.144523 145 6061ft 79kts
06-May-17 07:21 34.683709 -118.126247 143 6764ft 79kts
06-May-17 07:22 34.667602 -118.109818 162 7411ft 75kts
06-May-17 07:23 34.651869 -118.091488 147 8049ft 82kts
06-May-17 07:24 34.630813 -118.071518 198 8015ft 108kts
06-May-17 07:25 34.621918 -118.102910 255 8014ft 109kts
06-May-17 07:26 34.615161 -118.137556 252 8012ft 108kts
06-May-17 07:27 34.607855 -118.170863 251 8010ft 108kts
06-May-17 07:28 34.600599 -118.203494 251 8007ft 109kts
06-May-17 07:29 34.593623 -118.234762 251 8004ft 109kts
06-May-17 07:30 34.587058 -118.264181 251 8002ft 109kts
06-May-17 07:31 34.581081 -118.290910 251 8000ft 109kts
06-May-17 07:32 34.575358 -118.316472 251 7998ft 109kts
06-May-17 07:33 34.569651 -118.341950 251 8001ft 109kts
06-May-17 07:34 34.564394 -118.365402 251 8006ft 109kts
06-May-17 07:35 34.558734 -118.390623 250 8012ft 109kts
06-May-17 07:36 34.553227 -118.415141 250 8019ft 110kts
06-May-17 07:37 34.548830 -118.434704 250 8024ft 111kts
06-May-17 07:38 34.544610 -118.453446 250 8019ft 112kts
06-May-17 07:39 34.538878 -118.471334 216 7994ft 106kts
06-May-17 07:40 34.529245 -118.478625 213 7804ft 105kts
06-May-17 07:41 34.516438 -118.488819 213 7459ft 103kts
06-May-17 07:42 34.507031 -118.497108 214 7198ft 102kts
06-May-17 07:43 34.499489 -118.502974 211 6973ft 104kts
06-May-17 07:44 34.489319 -118.511386 213 6709ft 103kts
06-May-17 07:45 34.481074 -118.518401 214 6489ft 103kts
06-May-17 07:46 34.465876 -118.531208 214 6097ft 103kts
06-May-17 07:47 34.454558 -118.540866 214 6006ft 113kts
06-May-17 07:48 34.444076 -118.549427 212 6016ft 113kts
06-May-17 07:49 34.429180 -118.559315 190 6021ft 113kts
06-May-17 07:50 34.413845 -118.563753 193 6017ft 114kts
06-May-17 07:51 34.400764 -118.567403 193 6017ft 114kts
06-May-17 07:52 34.382631 -118.572378 193 6017ft 114kts
06-May-17 07:53 34.369731 -118.575875 193 6017ft 114kts
06-May-17 07:54 34.354863 -118.579857 193 6016ft 114kts
06-May-17 07:55 34.339485 -118.583923 193 6016ft 114kts
06-May-17 07:56 34.323628 -118.588061 193 6016ft 114kts
06-May-17 07:57 34.307081 -118.592326 194 6016ft 113kts
06-May-17 07:58 34.289683 -118.596959 194 5440ft 115kts
06-May-17 07:59 34.264650 -118.603921 192 4691ft 115kts
06-May-17 08:00 34.237691 -118.611580 193 4005ft 119kts
06-May-17 08:01 34.214466 -118.617050 191 3992ft 112kts
06-May-17 08:02 34.195249 -118.621283 194 4059ft 117kts
06-May-17 08:03 34.176972 -118.625317 183 4067ft 122kts
06-May-17 08:04 34.163838 -118.608185 83 3442ft 135kts
06-May-17 08:05 34.189115 -118.586354 54 2998ft 125kts
06-May-17 08:06 34.198618 -118.556089 84 3042ft 105kts
06-May-17 08:07 34.199420 -118.532647 90 3008ft 85kts
06-May-17 08:08 34.199448 -118.510167 93 3029ft 84kts
06-May-17 08:09 34.199188 -118.486675 97 2632ft 81kts
06-May-17 08:10 34.198948 -118.461860 91 2257ft 90kts
06-May-17 08:11 34.198789 -118.436359 93 1847ft 90kts
06-May-17 08:12 34.198438 -118.411036 92 1455ft 88kts
06-May-17 08:13 34.198145 -118.388462 93 1093ft 73kts
06-May-17 08:14 34.197903 -118.369558 93 789ft 65kts
06-May-17 08:15 34.197009 -118.357986 194 709ft 12kts
06-May-17 08:16 34.196833 -118.357916 128 709ft 4kts
06-May-17 08:17 34.197212 -118.355354 95 704ft 10kts
06-May-17 08:18 34.196593 -118.354771 176 702ft 0kts
06-May-17 08:19 34.196593 -118.354771 176 702ft 0kts
06-May-17 08:20 34.196593 -118.354771 176 702ft 0kts
06-May-17 08:21 34.196593 -118.354771 176 702ft 0kts
06-May-17 08:22 34.196593 -118.354771 176 702ft 0kts
06-May-17 08:23 34.196593 -118.354771 176 702ft 0kts
06-May-17 08:24 34.196593 -118.354771 176 702ft 0kts
06-May-17 08:25 34.196593 -118.354771 176 702ft 0kts
06-May-17 08:26 34.196593 -118.354771 176 702ft 0kts
06-May-17 08:27 34.196593 -118.354771 176 702ft 0kts
06-May-17 08:28 34.196593 -118.354771 176 702ft 0kts
06-May-17 08:29 34.196593 -118.354771 176 702ft 0kts

Navigation Log

Ident Type
Flight plan parsing failed, navigation log unavailable